AAL2656 KLAX-MMSD
Flight info
| Callsign | AAL2656 |
|---|---|
| Flight time | 2h 0m |
| Altitude | 35000 |
| Route | PNDAH2 OTAYY DCT TIJ UT6 IMUSU UT25 LTO DCT ENEKO ENEKO1A |
| Aircraft | A321/M-SDE3FGHIRWY/LB1 |
Departure
| Time | 2026-05-06 19:45 |
|---|---|
| Airport | Los Angeles International Airport (KLAX) |
Arrival
| Time | 2026-05-06 21:46 |
|---|---|
| Airport | Los Cabos International Airport (MMSD) |
| Time | Latitude | Longitude | Altitude | Speed | Heading |
|---|---|---|---|---|---|
| 2026-05-06 19:17 | 33.94087 | -118.40945 | 93 ft | 0 kts | 262° |
| 2026-05-06 19:29 | 33.94089 | -118.40923 | 94 ft | 4 kts | 262° |
| 2026-05-06 19:29 | 33.94093 | -118.40891 | 93 ft | 4 kts | 262° |
| 2026-05-06 19:30 | 33.94095 | -118.40865 | 93 ft | 4 kts | 257° |
| 2026-05-06 19:30 | 33.94105 | -118.40841 | 93 ft | 4 kts | 198° |
| 2026-05-06 19:30 | 33.94128 | -118.40841 | 95 ft | 4 kts | 173° |
| 2026-05-06 19:30 | 33.94137 | -118.40843 | 93 ft | 0 kts | 173° |
| 2026-05-06 19:34 | 33.94134 | -118.40842 | 94 ft | 2 kts | 173° |
| 2026-05-06 19:34 | 33.94089 | -118.40835 | 94 ft | 10 kts | 173° |
| 2026-05-06 19:35 | 33.94018 | -118.40825 | 93 ft | 11 kts | 173° |
| 2026-05-06 19:35 | 33.93953 | -118.40816 | 95 ft | 8 kts | 173° |
| 2026-05-06 19:35 | 33.93945 | -118.40814 | 93 ft | 0 kts | 173° |
| 2026-05-06 19:37 | 33.93942 | -118.40814 | 93 ft | 2 kts | 173° |
| 2026-05-06 19:38 | 33.93879 | -118.40779 | 94 ft | 11 kts | 144° |
| 2026-05-06 19:38 | 33.93825 | -118.40705 | 97 ft | 12 kts | 115° |
| 2026-05-06 19:38 | 33.93816 | -118.40606 | 95 ft | 12 kts | 85° |
| 2026-05-06 19:38 | 33.93826 | -118.40503 | 98 ft | 13 kts | 83° |
| 2026-05-06 19:39 | 33.93837 | -118.40392 | 97 ft | 14 kts | 83° |
| 2026-05-06 19:39 | 33.93843 | -118.40341 | 96 ft | 14 kts | 82° |
| 2026-05-06 19:39 | 33.93856 | -118.40220 | 98 ft | 15 kts | 83° |
| 2026-05-06 19:39 | 33.93868 | -118.40101 | 95 ft | 16 kts | 83° |
| 2026-05-06 19:40 | 33.93882 | -118.39967 | 96 ft | 17 kts | 83° |
| 2026-05-06 19:40 | 33.93896 | -118.39826 | 98 ft | 18 kts | 83° |
| 2026-05-06 19:40 | 33.93911 | -118.39668 | 97 ft | 19 kts | 83° |
| 2026-05-06 19:40 | 33.93930 | -118.39502 | 94 ft | 20 kts | 82° |
| 2026-05-06 19:41 | 33.93948 | -118.39330 | 94 ft | 22 kts | 83° |
| 2026-05-06 19:41 | 33.93965 | -118.39144 | 97 ft | 22 kts | 84° |
| 2026-05-06 19:41 | 33.93983 | -118.38966 | 96 ft | 19 kts | 82° |
| 2026-05-06 19:41 | 33.93995 | -118.38861 | 94 ft | 20 kts | 83° |
| 2026-05-06 19:42 | 33.94002 | -118.38796 | 93 ft | 20 kts | 83° |
| 2026-05-06 19:42 | 33.94002 | -118.38788 | 94 ft | 20 kts | 83° |
| 2026-05-06 19:42 | 33.94019 | -118.38623 | 95 ft | 20 kts | 83° |
| 2026-05-06 19:42 | 33.94036 | -118.38457 | 96 ft | 20 kts | 83° |
| 2026-05-06 19:43 | 33.94053 | -118.38289 | 97 ft | 21 kts | 83° |
| 2026-05-06 19:43 | 33.94071 | -118.38116 | 95 ft | 17 kts | 82° |
| 2026-05-06 19:43 | 33.94076 | -118.38032 | 93 ft | 0 kts | 101° |
| 2026-05-06 19:44 | 33.94073 | -118.38019 | 93 ft | 5 kts | 108° |
| 2026-05-06 19:44 | 33.94027 | -118.37993 | 93 ft | 11 kts | 179° |
| 2026-05-06 19:44 | 33.93976 | -118.38096 | 94 ft | 25 kts | 264° |
| 2026-05-06 19:45 | 33.93926 | -118.38584 | 101 ft | 94 kts | 263° |
| 2026-05-06 19:45 | 33.93818 | -118.39625 | 98 ft | 153 kts | 263° |
| 2026-05-06 19:45 | 33.93673 | -118.41019 | 474 ft | 169 kts | 262° |
| 2026-05-06 19:45 | 33.93526 | -118.42409 | 1270 ft | 165 kts | 263° |
| 2026-05-06 19:46 | 33.93388 | -118.43779 | 2016 ft | 164 kts | 262° |
| 2026-05-06 19:46 | 33.93227 | -118.45189 | 2373 ft | 180 kts | 256° |
| 2026-05-06 19:46 | 33.92673 | -118.46629 | 2606 ft | 202 kts | 234° |
| 2026-05-06 19:46 | 33.91755 | -118.48028 | 2784 ft | 224 kts | 232° |
| 2026-05-06 19:47 | 33.90518 | -118.49312 | 2952 ft | 250 kts | 204° |
| 2026-05-06 19:47 | 33.88794 | -118.49666 | 3443 ft | 263 kts | 180° |
| 2026-05-06 19:47 | 33.86956 | -118.49734 | 4147 ft | 266 kts | 185° |
| 2026-05-06 19:47 | 33.85099 | -118.49965 | 4859 ft | 270 kts | 187° |
| 2026-05-06 19:48 | 33.83219 | -118.50255 | 5573 ft | 274 kts | 188° |
| 2026-05-06 19:48 | 33.81318 | -118.50552 | 6290 ft | 278 kts | 187° |
| 2026-05-06 19:48 | 33.79387 | -118.50836 | 7000 ft | 281 kts | 187° |
| 2026-05-06 19:48 | 33.77430 | -118.51104 | 7682 ft | 285 kts | 186° |
| 2026-05-06 19:49 | 33.75441 | -118.51365 | 8350 ft | 290 kts | 186° |
| 2026-05-06 19:49 | 33.73424 | -118.51581 | 9017 ft | 293 kts | 179° |
| 2026-05-06 19:49 | 33.71435 | -118.51219 | 9603 ft | 296 kts | 160° |
| 2026-05-06 19:49 | 33.69602 | -118.50090 | 10208 ft | 298 kts | 141° |
| 2026-05-06 19:50 | 33.68130 | -118.48294 | 10567 ft | 311 kts | 122° |
| 2026-05-06 19:50 | 33.67067 | -118.45962 | 10709 ft | 329 kts | 115° |
| 2026-05-06 19:50 | 33.66003 | -118.43439 | 10875 ft | 347 kts | 115° |
| 2026-05-06 19:50 | 33.64894 | -118.40829 | 11333 ft | 355 kts | 115° |
| 2026-05-06 19:51 | 33.63758 | -118.38177 | 11923 ft | 358 kts | 114° |
| 2026-05-06 19:51 | 33.62614 | -118.35517 | 12535 ft | 360 kts | 114° |
| 2026-05-06 19:51 | 33.61461 | -118.32845 | 13122 ft | 362 kts | 114° |
| 2026-05-06 19:51 | 33.60312 | -118.30190 | 13693 ft | 365 kts | 114° |
| 2026-05-06 19:52 | 33.59137 | -118.27479 | 14284 ft | 367 kts | 114° |
| 2026-05-06 19:52 | 33.57956 | -118.24753 | 14841 ft | 370 kts | 114° |
| 2026-05-06 19:52 | 33.56766 | -118.22009 | 15402 ft | 372 kts | 114° |
| 2026-05-06 19:52 | 33.55570 | -118.19249 | 15940 ft | 374 kts | 113° |
| 2026-05-06 19:53 | 33.54368 | -118.16470 | 16485 ft | 376 kts | 113° |
| 2026-05-06 19:53 | 33.53159 | -118.13673 | 17001 ft | 379 kts | 113° |
| 2026-05-06 19:53 | 33.51950 | -118.10866 | 17519 ft | 381 kts | 112° |
| 2026-05-06 19:53 | 33.50751 | -118.08067 | 17996 ft | 383 kts | 112° |
| 2026-05-06 19:54 | 33.49531 | -118.05224 | 18489 ft | 386 kts | 112° |
| 2026-05-06 19:54 | 33.48296 | -118.02353 | 18938 ft | 388 kts | 112° |
| 2026-05-06 19:54 | 33.46873 | -117.99577 | 19348 ft | 396 kts | 122° |
| 2026-05-06 19:54 | 33.45016 | -117.97096 | 19772 ft | 404 kts | 133° |
| 2026-05-06 19:55 | 33.42899 | -117.94854 | 20195 ft | 408 kts | 134° |
| 2026-05-06 19:55 | 33.40770 | -117.92601 | 20609 ft | 410 kts | 134° |
| 2026-05-06 19:55 | 33.38628 | -117.90326 | 21005 ft | 413 kts | 134° |
| 2026-05-06 19:55 | 33.36477 | -117.88039 | 21391 ft | 415 kts | 134° |
| 2026-05-06 19:56 | 33.34343 | -117.85771 | 21769 ft | 418 kts | 134° |
| 2026-05-06 19:56 | 33.32166 | -117.83459 | 22151 ft | 420 kts | 134° |
| 2026-05-06 19:56 | 33.29976 | -117.81135 | 22516 ft | 422 kts | 134° |
| 2026-05-06 19:56 | 33.27770 | -117.78801 | 22874 ft | 425 kts | 134° |
| 2026-05-06 19:57 | 33.25550 | -117.76452 | 23221 ft | 427 kts | 134° |
| 2026-05-06 19:57 | 33.23320 | -117.74096 | 23571 ft | 430 kts | 134° |
| 2026-05-06 19:57 | 33.21070 | -117.71722 | 23908 ft | 433 kts | 134° |
| 2026-05-06 19:57 | 33.18806 | -117.69337 | 24252 ft | 435 kts | 134° |
| 2026-05-06 19:58 | 33.16534 | -117.66943 | 24585 ft | 437 kts | 134° |
| 2026-05-06 19:58 | 33.14269 | -117.64521 | 24922 ft | 438 kts | 133° |
| 2026-05-06 19:58 | 33.12062 | -117.62087 | 25243 ft | 439 kts | 132° |
| 2026-05-06 19:58 | 33.09830 | -117.59578 | 25566 ft | 441 kts | 131° |
| 2026-05-06 19:59 | 33.07600 | -117.57056 | 25892 ft | 443 kts | 131° |
| 2026-05-06 19:59 | 33.05360 | -117.54528 | 26201 ft | 445 kts | 131° |
| 2026-05-06 19:59 | 33.03102 | -117.51996 | 26519 ft | 447 kts | 131° |
| 2026-05-06 19:59 | 33.00827 | -117.49464 | 26825 ft | 449 kts | 132° |
| 2026-05-06 20:00 | 32.98538 | -117.46932 | 27120 ft | 451 kts | 132° |
| 2026-05-06 20:00 | 32.96262 | -117.44419 | 27405 ft | 452 kts | 132° |
| 2026-05-06 20:00 | 32.93955 | -117.41870 | 27692 ft | 454 kts | 132° |
| 2026-05-06 20:00 | 32.91638 | -117.39306 | 27981 ft | 455 kts | 132° |
| 2026-05-06 20:01 | 32.89313 | -117.36734 | 28262 ft | 457 kts | 132° |
| 2026-05-06 20:01 | 32.86977 | -117.34155 | 28511 ft | 459 kts | 132° |
| 2026-05-06 20:01 | 32.84633 | -117.31575 | 28787 ft | 461 kts | 132° |
| 2026-05-06 20:01 | 32.82277 | -117.28980 | 29037 ft | 462 kts | 132° |
| 2026-05-06 20:02 | 32.79918 | -117.26374 | 29275 ft | 463 kts | 132° |
| 2026-05-06 20:02 | 32.77589 | -117.23800 | 29507 ft | 464 kts | 132° |
| 2026-05-06 20:02 | 32.75219 | -117.21188 | 29726 ft | 465 kts | 132° |
| 2026-05-06 20:02 | 32.72839 | -117.18569 | 29933 ft | 467 kts | 132° |
| 2026-05-06 20:03 | 32.70454 | -117.15950 | 30173 ft | 467 kts | 132° |
| 2026-05-06 20:03 | 32.68069 | -117.13337 | 30432 ft | 467 kts | 132° |
| 2026-05-06 20:03 | 32.65757 | -117.10653 | 30684 ft | 463 kts | 127° |
| 2026-05-06 20:03 | 32.63603 | -117.07821 | 30914 ft | 463 kts | 127° |
| 2026-05-06 20:04 | 32.61446 | -117.04986 | 31160 ft | 463 kts | 127° |
| 2026-05-06 20:04 | 32.59322 | -117.02198 | 31408 ft | 462 kts | 127° |
| 2026-05-06 20:04 | 32.57169 | -116.99372 | 31651 ft | 462 kts | 128° |
| 2026-05-06 20:04 | 32.55014 | -116.96548 | 31887 ft | 461 kts | 129° |
| 2026-05-06 20:05 | 32.52668 | -116.93931 | 32100 ft | 466 kts | 136° |
| 2026-05-06 20:05 | 32.50151 | -116.91509 | 32315 ft | 466 kts | 137° |
| 2026-05-06 20:05 | 32.47630 | -116.89087 | 32546 ft | 466 kts | 137° |
| 2026-05-06 20:05 | 32.45115 | -116.86673 | 32784 ft | 466 kts | 137° |
| 2026-05-06 20:06 | 32.42597 | -116.84258 | 33014 ft | 465 kts | 138° |
| 2026-05-06 20:06 | 32.40088 | -116.81847 | 33237 ft | 465 kts | 138° |
| 2026-05-06 20:06 | 32.37579 | -116.79435 | 33454 ft | 464 kts | 138° |
| 2026-05-06 20:06 | 32.35107 | -116.77061 | 33676 ft | 464 kts | 139° |
| 2026-05-06 20:07 | 32.32604 | -116.74660 | 33881 ft | 464 kts | 139° |
| 2026-05-06 20:07 | 32.30099 | -116.72261 | 34095 ft | 463 kts | 139° |
| 2026-05-06 20:07 | 32.27596 | -116.69867 | 34294 ft | 463 kts | 139° |
| 2026-05-06 20:07 | 32.25096 | -116.67476 | 34499 ft | 462 kts | 140° |
| 2026-05-06 20:08 | 32.22594 | -116.65083 | 34692 ft | 462 kts | 140° |
| 2026-05-06 20:08 | 32.20097 | -116.62698 | 34887 ft | 462 kts | 140° |
| 2026-05-06 20:08 | 32.15105 | -116.57946 | 34983 ft | 460 kts | 141° |
| 2026-05-06 20:09 | 32.10222 | -116.53167 | 34982 ft | 459 kts | 140° |
| 2026-05-06 20:09 | 32.05371 | -116.48282 | 34978 ft | 459 kts | 140° |
| 2026-05-06 20:10 | 32.00515 | -116.43416 | 34974 ft | 458 kts | 140° |
| 2026-05-06 20:10 | 31.95647 | -116.38573 | 34975 ft | 458 kts | 141° |
| 2026-05-06 20:11 | 31.90801 | -116.33769 | 34979 ft | 458 kts | 141° |
| 2026-05-06 20:11 | 31.85916 | -116.28948 | 34984 ft | 458 kts | 141° |
| 2026-05-06 20:12 | 31.81031 | -116.24126 | 34987 ft | 459 kts | 141° |
| 2026-05-06 20:12 | 31.76143 | -116.19300 | 34987 ft | 459 kts | 141° |
| 2026-05-06 20:13 | 31.71228 | -116.14593 | 34985 ft | 458 kts | 143° |
| 2026-05-06 20:13 | 31.66131 | -116.10097 | 34984 ft | 458 kts | 145° |
| 2026-05-06 20:14 | 31.61011 | -116.05652 | 34978 ft | 458 kts | 145° |
| 2026-05-06 20:14 | 31.55920 | -116.01160 | 34964 ft | 458 kts | 144° |
| 2026-05-06 20:15 | 31.50881 | -115.96667 | 34958 ft | 458 kts | 145° |
| 2026-05-06 20:15 | 31.45810 | -115.92160 | 34957 ft | 457 kts | 146° |
| 2026-05-06 20:16 | 31.40739 | -115.87673 | 34951 ft | 457 kts | 146° |
| 2026-05-06 20:16 | 31.35672 | -115.83196 | 34946 ft | 456 kts | 146° |
| 2026-05-06 20:17 | 31.31464 | -115.79482 | 34943 ft | 456 kts | 147° |
| 2026-05-06 20:17 | 31.25577 | -115.74293 | 34945 ft | 456 kts | 147° |
| 2026-05-06 20:18 | 31.20517 | -115.69848 | 34944 ft | 455 kts | 148° |
| 2026-05-06 20:18 | 31.16308 | -115.66150 | 34943 ft | 455 kts | 148° |
| 2026-05-06 20:19 | 31.11250 | -115.61702 | 34935 ft | 455 kts | 148° |
| 2026-05-06 20:19 | 31.05368 | -115.56543 | 34929 ft | 455 kts | 149° |
| 2026-05-06 20:20 | 31.01129 | -115.52836 | 34924 ft | 455 kts | 149° |
| 2026-05-06 20:20 | 30.96098 | -115.48439 | 34924 ft | 455 kts | 149° |
| 2026-05-06 20:21 | 30.91037 | -115.44010 | 34926 ft | 455 kts | 150° |
| 2026-05-06 20:21 | 30.85134 | -115.38867 | 34930 ft | 456 kts | 150° |
| 2026-05-06 20:22 | 30.80886 | -115.35163 | 34932 ft | 456 kts | 150° |
| 2026-05-06 20:22 | 30.75899 | -115.30659 | 34931 ft | 457 kts | 149° |
| 2026-05-06 20:23 | 30.70942 | -115.26017 | 34932 ft | 458 kts | 149° |
| 2026-05-06 20:23 | 30.65982 | -115.21385 | 34935 ft | 457 kts | 150° |
| 2026-05-06 20:24 | 30.61003 | -115.16787 | 34930 ft | 457 kts | 150° |
| 2026-05-06 20:24 | 30.56053 | -115.12238 | 34918 ft | 456 kts | 150° |
| 2026-05-06 20:25 | 30.51078 | -115.07676 | 34918 ft | 456 kts | 150° |
| 2026-05-06 20:25 | 30.46109 | -115.03110 | 34914 ft | 455 kts | 150° |
| 2026-05-06 20:26 | 30.41142 | -114.98556 | 34915 ft | 456 kts | 151° |
| 2026-05-06 20:26 | 30.36177 | -114.94007 | 34889 ft | 453 kts | 151° |
| 2026-05-06 20:27 | 30.31272 | -114.89523 | 34889 ft | 452 kts | 152° |
| 2026-05-06 20:27 | 30.26329 | -114.85018 | 34890 ft | 452 kts | 152° |
| 2026-05-06 20:28 | 30.21391 | -114.80516 | 34887 ft | 452 kts | 152° |
| 2026-05-06 20:28 | 30.16458 | -114.76026 | 34893 ft | 451 kts | 152° |
| 2026-05-06 20:29 | 30.11525 | -114.71538 | 34897 ft | 452 kts | 153° |
| 2026-05-06 20:29 | 30.06612 | -114.67081 | 34902 ft | 452 kts | 153° |
| 2026-05-06 20:30 | 29.99182 | -114.60345 | 34909 ft | 453 kts | 153° |
| 2026-05-06 20:31 | 29.94241 | -114.55868 | 34908 ft | 451 kts | 154° |
| 2026-05-06 20:31 | 29.89297 | -114.51408 | 34916 ft | 451 kts | 154° |
| 2026-05-06 20:32 | 29.84390 | -114.46986 | 34915 ft | 450 kts | 154° |
| 2026-05-06 20:32 | 29.79460 | -114.42534 | 34918 ft | 451 kts | 154° |
| 2026-05-06 20:33 | 29.74531 | -114.38080 | 34916 ft | 450 kts | 154° |
| 2026-05-06 20:33 | 29.69601 | -114.33638 | 34917 ft | 450 kts | 155° |
| 2026-05-06 20:34 | 29.64699 | -114.29240 | 34881 ft | 442 kts | 155° |
| 2026-05-06 20:34 | 29.59845 | -114.24894 | 34887 ft | 447 kts | 155° |
| 2026-05-06 20:35 | 29.54937 | -114.20498 | 34893 ft | 448 kts | 155° |
| 2026-05-06 20:35 | 29.50025 | -114.16103 | 34889 ft | 448 kts | 155° |
| 2026-05-06 20:36 | 29.45108 | -114.11709 | 34889 ft | 448 kts | 154° |
| 2026-05-06 20:36 | 29.40232 | -114.07359 | 34886 ft | 448 kts | 155° |
| 2026-05-06 20:37 | 29.35325 | -114.02971 | 34888 ft | 448 kts | 155° |
| 2026-05-06 20:37 | 29.30387 | -113.98572 | 34888 ft | 450 kts | 155° |
| 2026-05-06 20:38 | 29.25438 | -113.94187 | 34894 ft | 450 kts | 155° |
| 2026-05-06 20:38 | 29.20524 | -113.89823 | 34895 ft | 450 kts | 155° |
| 2026-05-06 20:39 | 29.15584 | -113.85419 | 34890 ft | 450 kts | 155° |
| 2026-05-06 20:39 | 29.10638 | -113.81040 | 34893 ft | 450 kts | 155° |
| 2026-05-06 20:40 | 29.05698 | -113.76685 | 35036 ft | 450 kts | 155° |
| 2026-05-06 20:40 | 29.00727 | -113.72298 | 35052 ft | 452 kts | 155° |
| 2026-05-06 20:41 | 28.95793 | -113.67938 | 35056 ft | 451 kts | 155° |
| 2026-05-06 20:41 | 28.90820 | -113.63556 | 35056 ft | 451 kts | 155° |
| 2026-05-06 20:42 | 28.85857 | -113.59177 | 35060 ft | 451 kts | 155° |
| 2026-05-06 20:42 | 28.80902 | -113.54817 | 35056 ft | 449 kts | 155° |
| 2026-05-06 20:43 | 28.75948 | -113.50471 | 35043 ft | 449 kts | 155° |
| 2026-05-06 20:43 | 28.71017 | -113.46160 | 35041 ft | 450 kts | 155° |
| 2026-05-06 20:44 | 28.66066 | -113.41815 | 35024 ft | 450 kts | 155° |
| 2026-05-06 20:44 | 28.61097 | -113.37471 | 35034 ft | 451 kts | 155° |
| 2026-05-06 20:45 | 28.56125 | -113.33121 | 35038 ft | 451 kts | 155° |
| 2026-05-06 20:45 | 28.51182 | -113.28808 | 35034 ft | 451 kts | 155° |
| 2026-05-06 20:46 | 28.46207 | -113.24471 | 35031 ft | 451 kts | 155° |
| 2026-05-06 20:46 | 28.41233 | -113.20140 | 35032 ft | 450 kts | 155° |
| 2026-05-06 20:47 | 28.36259 | -113.15812 | 35029 ft | 451 kts | 155° |
| 2026-05-06 20:47 | 28.31313 | -113.11511 | 35037 ft | 451 kts | 155° |
| 2026-05-06 20:48 | 28.26326 | -113.07192 | 35038 ft | 451 kts | 155° |
| 2026-05-06 20:48 | 28.21344 | -113.02880 | 35031 ft | 450 kts | 155° |
| 2026-05-06 20:49 | 28.16368 | -112.98569 | 35032 ft | 451 kts | 155° |
| 2026-05-06 20:49 | 28.11413 | -112.94288 | 35036 ft | 450 kts | 155° |
| 2026-05-06 20:50 | 28.06435 | -112.89982 | 35040 ft | 450 kts | 155° |
| 2026-05-06 20:50 | 28.01462 | -112.85693 | 35043 ft | 449 kts | 155° |
| 2026-05-06 20:51 | 27.96490 | -112.81405 | 35037 ft | 449 kts | 155° |
| 2026-05-06 20:51 | 27.91550 | -112.77158 | 35033 ft | 449 kts | 155° |
| 2026-05-06 20:52 | 27.86581 | -112.72889 | 35035 ft | 448 kts | 155° |
| 2026-05-06 20:52 | 27.81619 | -112.68638 | 35038 ft | 448 kts | 155° |
| 2026-05-06 20:53 | 27.76650 | -112.64385 | 35039 ft | 448 kts | 155° |
| 2026-05-06 20:53 | 27.71690 | -112.60140 | 35039 ft | 447 kts | 155° |
| 2026-05-06 20:54 | 27.66761 | -112.55918 | 35039 ft | 448 kts | 155° |
| 2026-05-06 20:54 | 27.61796 | -112.51673 | 35041 ft | 448 kts | 155° |
| 2026-05-06 20:55 | 27.56832 | -112.47438 | 35030 ft | 447 kts | 155° |
| 2026-05-06 20:55 | 27.51872 | -112.43211 | 35036 ft | 447 kts | 155° |
| 2026-05-06 20:56 | 27.46952 | -112.39008 | 35042 ft | 447 kts | 155° |
| 2026-05-06 20:56 | 27.41994 | -112.34786 | 35039 ft | 446 kts | 155° |
| 2026-05-06 20:57 | 27.37038 | -112.30592 | 35041 ft | 446 kts | 155° |
| 2026-05-06 20:57 | 27.32038 | -112.26481 | 35042 ft | 438 kts | 160° |
| 2026-05-06 20:58 | 27.26851 | -112.22890 | 35042 ft | 438 kts | 160° |
| 2026-05-06 20:58 | 27.21706 | -112.19326 | 35040 ft | 438 kts | 160° |
| 2026-05-06 20:59 | 27.16521 | -112.15745 | 35049 ft | 437 kts | 160° |
| 2026-05-06 20:59 | 27.11339 | -112.12178 | 35057 ft | 437 kts | 160° |
| 2026-05-06 21:00 | 27.06189 | -112.08631 | 35061 ft | 437 kts | 160° |
| 2026-05-06 21:00 | 27.01012 | -112.05070 | 35061 ft | 437 kts | 160° |
| 2026-05-06 21:01 | 26.95833 | -112.01507 | 35061 ft | 437 kts | 160° |
| 2026-05-06 21:01 | 26.90652 | -111.97938 | 35061 ft | 437 kts | 160° |
| 2026-05-06 21:02 | 26.85466 | -111.94382 | 35062 ft | 437 kts | 160° |
| 2026-05-06 21:02 | 26.80315 | -111.90854 | 35065 ft | 436 kts | 160° |
| 2026-05-06 21:03 | 26.75134 | -111.87306 | 35069 ft | 437 kts | 160° |
| 2026-05-06 21:03 | 26.69946 | -111.83759 | 35066 ft | 437 kts | 160° |
| 2026-05-06 21:04 | 26.64754 | -111.80213 | 35065 ft | 437 kts | 160° |
| 2026-05-06 21:04 | 26.59596 | -111.76698 | 35067 ft | 437 kts | 160° |
| 2026-05-06 21:05 | 26.54409 | -111.73156 | 35070 ft | 437 kts | 160° |
| 2026-05-06 21:05 | 26.49224 | -111.69623 | 35069 ft | 437 kts | 160° |
| 2026-05-06 21:06 | 26.44047 | -111.66101 | 35069 ft | 436 kts | 160° |
| 2026-05-06 21:06 | 26.38904 | -111.62610 | 35068 ft | 436 kts | 160° |
| 2026-05-06 21:07 | 26.33729 | -111.59089 | 35069 ft | 435 kts | 160° |
| 2026-05-06 21:07 | 26.28557 | -111.55566 | 35073 ft | 435 kts | 160° |
| 2026-05-06 21:08 | 26.23386 | -111.52056 | 35068 ft | 435 kts | 160° |
| 2026-05-06 21:08 | 26.18246 | -111.48579 | 35071 ft | 435 kts | 160° |
| 2026-05-06 21:09 | 26.13090 | -111.45086 | 35064 ft | 434 kts | 159° |
| 2026-05-06 21:09 | 26.07939 | -111.41604 | 35062 ft | 433 kts | 160° |
| 2026-05-06 21:10 | 26.02794 | -111.38136 | 35066 ft | 432 kts | 160° |
| 2026-05-06 21:10 | 25.97736 | -111.34434 | 35055 ft | 446 kts | 149° |
| 2026-05-06 21:11 | 25.93356 | -111.29451 | 35046 ft | 456 kts | 144° |
| 2026-05-06 21:11 | 25.89010 | -111.24314 | 35044 ft | 457 kts | 144° |
| 2026-05-06 21:12 | 25.84657 | -111.19183 | 35044 ft | 457 kts | 144° |
| 2026-05-06 21:12 | 25.80288 | -111.14059 | 35045 ft | 457 kts | 144° |
| 2026-05-06 21:13 | 25.75939 | -111.08978 | 35043 ft | 457 kts | 144° |
| 2026-05-06 21:13 | 25.71563 | -111.03860 | 35044 ft | 457 kts | 144° |
| 2026-05-06 21:14 | 25.67191 | -110.98740 | 35040 ft | 457 kts | 144° |
| 2026-05-06 21:14 | 25.62812 | -110.93621 | 35041 ft | 458 kts | 144° |
| 2026-05-06 21:15 | 25.58451 | -110.88533 | 35044 ft | 458 kts | 144° |
| 2026-05-06 21:15 | 25.54057 | -110.83418 | 35049 ft | 458 kts | 144° |
| 2026-05-06 21:16 | 25.49659 | -110.78308 | 35052 ft | 458 kts | 144° |
| 2026-05-06 21:16 | 25.45264 | -110.73197 | 35053 ft | 458 kts | 144° |
| 2026-05-06 21:17 | 25.40865 | -110.68089 | 35049 ft | 458 kts | 144° |
| 2026-05-06 21:17 | 25.36490 | -110.63016 | 35048 ft | 459 kts | 144° |
| 2026-05-06 21:18 | 25.32090 | -110.57914 | 35044 ft | 458 kts | 144° |
| 2026-05-06 21:18 | 25.27694 | -110.52819 | 35045 ft | 458 kts | 144° |
| 2026-05-06 21:19 | 25.23283 | -110.47723 | 35040 ft | 459 kts | 144° |
| 2026-05-06 21:19 | 25.18896 | -110.42670 | 35038 ft | 459 kts | 144° |
| 2026-05-06 21:20 | 25.14471 | -110.37568 | 35039 ft | 460 kts | 144° |
| 2026-05-06 21:20 | 25.10053 | -110.32466 | 35043 ft | 460 kts | 144° |
| 2026-05-06 21:21 | 25.05622 | -110.27365 | 35044 ft | 460 kts | 144° |
| 2026-05-06 21:21 | 25.01223 | -110.22313 | 35043 ft | 460 kts | 144° |
| 2026-05-06 21:22 | 24.96787 | -110.17214 | 35042 ft | 460 kts | 143° |
| 2026-05-06 21:22 | 24.92350 | -110.12125 | 35042 ft | 460 kts | 144° |
| 2026-05-06 21:23 | 24.87913 | -110.07043 | 35038 ft | 460 kts | 143° |
| 2026-05-06 21:23 | 24.83495 | -110.02000 | 35038 ft | 461 kts | 143° |
| 2026-05-06 21:24 | 24.79041 | -109.96912 | 34722 ft | 461 kts | 143° |
| 2026-05-06 21:24 | 24.76826 | -109.94373 | 34476 ft | 461 kts | 143° |
| 2026-05-06 21:24 | 24.74595 | -109.91816 | 34191 ft | 461 kts | 143° |
| 2026-05-06 21:24 | 24.72360 | -109.89263 | 33314 ft | 466 kts | 143° |
| 2026-05-06 21:25 | 24.70098 | -109.86694 | 32415 ft | 469 kts | 142° |
| 2026-05-06 21:25 | 24.67817 | -109.84106 | 31495 ft | 472 kts | 142° |
| 2026-05-06 21:25 | 24.65548 | -109.81522 | 30970 ft | 466 kts | 142° |
| 2026-05-06 21:25 | 24.63343 | -109.79003 | 30403 ft | 461 kts | 142° |
| 2026-05-06 21:26 | 24.61134 | -109.76477 | 29830 ft | 456 kts | 141° |
| 2026-05-06 21:26 | 24.58945 | -109.73976 | 29266 ft | 452 kts | 141° |
| 2026-05-06 21:26 | 24.56770 | -109.71498 | 28699 ft | 447 kts | 141° |
| 2026-05-06 21:26 | 24.54622 | -109.69058 | 28130 ft | 442 kts | 142° |
| 2026-05-06 21:27 | 24.52491 | -109.66643 | 27573 ft | 437 kts | 141° |
| 2026-05-06 21:27 | 24.50385 | -109.64259 | 27019 ft | 432 kts | 141° |
| 2026-05-06 21:27 | 24.48309 | -109.61904 | 26486 ft | 427 kts | 141° |
| 2026-05-06 21:27 | 24.46255 | -109.59570 | 25950 ft | 422 kts | 141° |
| 2026-05-06 21:28 | 24.44227 | -109.57269 | 25438 ft | 417 kts | 141° |
| 2026-05-06 21:28 | 24.42248 | -109.55030 | 24947 ft | 412 kts | 141° |
| 2026-05-06 21:28 | 24.40265 | -109.52789 | 24455 ft | 407 kts | 141° |
| 2026-05-06 21:28 | 24.38304 | -109.50576 | 23966 ft | 402 kts | 141° |
| 2026-05-06 21:29 | 24.36364 | -109.48391 | 23505 ft | 397 kts | 141° |
| 2026-05-06 21:29 | 24.34324 | -109.46440 | 23062 ft | 382 kts | 152° |
| 2026-05-06 21:29 | 24.32054 | -109.45058 | 22641 ft | 368 kts | 164° |
| 2026-05-06 21:29 | 24.29658 | -109.44249 | 22233 ft | 354 kts | 175° |
| 2026-05-06 21:30 | 24.27292 | -109.43988 | 21840 ft | 341 kts | 185° |
| 2026-05-06 21:30 | 24.24950 | -109.44219 | 21463 ft | 335 kts | 195° |
| 2026-05-06 21:30 | 24.22689 | -109.44787 | 21087 ft | 333 kts | 197° |
| 2026-05-06 21:30 | 24.20445 | -109.45364 | 20675 ft | 331 kts | 197° |
| 2026-05-06 21:31 | 24.18208 | -109.45936 | 20275 ft | 329 kts | 197° |
| 2026-05-06 21:31 | 24.15981 | -109.46504 | 19887 ft | 327 kts | 197° |
| 2026-05-06 21:31 | 24.13773 | -109.47064 | 19473 ft | 325 kts | 197° |
| 2026-05-06 21:31 | 24.11574 | -109.47623 | 19066 ft | 323 kts | 197° |
| 2026-05-06 21:32 | 24.09387 | -109.48181 | 18651 ft | 322 kts | 197° |
| 2026-05-06 21:32 | 24.05080 | -109.49279 | 17827 ft | 318 kts | 197° |
| 2026-05-06 21:32 | 24.02931 | -109.49824 | 17401 ft | 316 kts | 197° |
| 2026-05-06 21:33 | 24.00790 | -109.50367 | 16984 ft | 315 kts | 196° |
| 2026-05-06 21:33 | 23.98666 | -109.50908 | 16576 ft | 314 kts | 196° |
| 2026-05-06 21:33 | 23.96538 | -109.51450 | 16158 ft | 312 kts | 196° |
| 2026-05-06 21:33 | 23.94425 | -109.51987 | 15739 ft | 311 kts | 196° |
| 2026-05-06 21:34 | 23.92324 | -109.52523 | 15326 ft | 310 kts | 196° |
| 2026-05-06 21:34 | 23.90239 | -109.53108 | 14883 ft | 308 kts | 201° |
| 2026-05-06 21:34 | 23.88147 | -109.53879 | 14321 ft | 324 kts | 201° |
| 2026-05-06 21:34 | 23.86031 | -109.54664 | 13745 ft | 326 kts | 201° |
| 2026-05-06 21:35 | 23.83890 | -109.55459 | 13169 ft | 324 kts | 201° |
| 2026-05-06 21:35 | 23.81756 | -109.56251 | 12613 ft | 323 kts | 201° |
| 2026-05-06 21:35 | 23.79637 | -109.57031 | 12056 ft | 321 kts | 201° |
| 2026-05-06 21:35 | 23.77524 | -109.57807 | 11481 ft | 319 kts | 201° |
| 2026-05-06 21:36 | 23.75429 | -109.58581 | 10912 ft | 319 kts | 200° |
| 2026-05-06 21:36 | 23.73316 | -109.59362 | 10365 ft | 319 kts | 200° |
| 2026-05-06 21:36 | 23.71252 | -109.60123 | 10176 ft | 306 kts | 201° |
| 2026-05-06 21:36 | 23.69302 | -109.60841 | 10000 ft | 294 kts | 200° |
| 2026-05-06 21:37 | 23.67396 | -109.61542 | 9842 ft | 287 kts | 200° |
| 2026-05-06 21:37 | 23.65501 | -109.62241 | 9723 ft | 287 kts | 200° |
| 2026-05-06 21:37 | 23.63604 | -109.62938 | 9568 ft | 288 kts | 200° |
| 2026-05-06 21:37 | 23.61710 | -109.63634 | 9225 ft | 287 kts | 200° |
| 2026-05-06 21:38 | 23.59824 | -109.64328 | 8857 ft | 286 kts | 200° |
| 2026-05-06 21:38 | 23.57937 | -109.65022 | 8501 ft | 286 kts | 200° |
| 2026-05-06 21:38 | 23.56056 | -109.65714 | 8127 ft | 285 kts | 200° |
| 2026-05-06 21:38 | 23.54182 | -109.66405 | 7744 ft | 283 kts | 200° |
| 2026-05-06 21:39 | 23.52346 | -109.67084 | 7380 ft | 282 kts | 200° |
| 2026-05-06 21:39 | 23.50500 | -109.67767 | 7020 ft | 279 kts | 200° |
| 2026-05-06 21:39 | 23.48708 | -109.68425 | 6665 ft | 266 kts | 200° |
| 2026-05-06 21:39 | 23.46990 | -109.69052 | 6316 ft | 250 kts | 200° |
| 2026-05-06 21:40 | 23.45377 | -109.69643 | 6004 ft | 242 kts | 200° |
| 2026-05-06 21:40 | 23.43797 | -109.70222 | 5700 ft | 238 kts | 200° |
| 2026-05-06 21:40 | 23.42230 | -109.70799 | 5397 ft | 237 kts | 200° |
| 2026-05-06 21:40 | 23.40672 | -109.71372 | 5090 ft | 236 kts | 200° |
| 2026-05-06 21:41 | 23.39124 | -109.71940 | 4773 ft | 233 kts | 200° |
| 2026-05-06 21:41 | 23.37612 | -109.72496 | 4477 ft | 232 kts | 201° |
| 2026-05-06 21:41 | 23.36088 | -109.73057 | 4186 ft | 230 kts | 200° |
| 2026-05-06 21:41 | 23.34590 | -109.73608 | 3879 ft | 226 kts | 200° |
| 2026-05-06 21:42 | 23.33087 | -109.74047 | 3568 ft | 223 kts | 186° |
| 2026-05-06 21:42 | 23.31553 | -109.73940 | 3273 ft | 219 kts | 175° |
| 2026-05-06 21:42 | 23.30054 | -109.73766 | 3004 ft | 215 kts | 175° |
| 2026-05-06 21:42 | 23.28604 | -109.73598 | 2731 ft | 206 kts | 175° |
| 2026-05-06 21:43 | 23.27211 | -109.73438 | 2460 ft | 197 kts | 176° |
| 2026-05-06 21:43 | 23.25863 | -109.73284 | 2193 ft | 191 kts | 176° |
| 2026-05-06 21:43 | 23.24576 | -109.73134 | 1947 ft | 182 kts | 176° |
| 2026-05-06 21:43 | 23.23362 | -109.72995 | 1737 ft | 172 kts | 176° |
| 2026-05-06 21:44 | 23.22232 | -109.72864 | 1513 ft | 155 kts | 175° |
| 2026-05-06 21:44 | 23.21198 | -109.72745 | 1310 ft | 145 kts | 173° |
| 2026-05-06 21:44 | 23.20226 | -109.72636 | 1120 ft | 138 kts | 172° |
| 2026-05-06 21:44 | 23.19282 | -109.72530 | 949 ft | 136 kts | 172° |
| 2026-05-06 21:45 | 23.18346 | -109.72422 | 787 ft | 134 kts | 172° |
| 2026-05-06 21:45 | 23.17416 | -109.72322 | 584 ft | 135 kts | 172° |
| 2026-05-06 21:45 | 23.16482 | -109.72217 | 411 ft | 135 kts | 173° |
| 2026-05-06 21:45 | 23.15649 | -109.72124 | 372 ft | 100 kts | 174° |
| 2026-05-06 21:46 | 23.15169 | -109.72068 | 353 ft | 32 kts | 171° |
| 2026-05-06 21:46 | 23.14969 | -109.71993 | 350 ft | 29 kts | 145° |
| 2026-05-06 21:46 | 23.14843 | -109.71895 | 348 ft | 14 kts | 142° |
| 2026-05-06 21:46 | 23.14847 | -109.71830 | 341 ft | 10 kts | 18° |
| 2026-05-06 21:47 | 23.14915 | -109.71835 | 345 ft | 10 kts | 352° |
| 2026-05-06 21:47 | 23.14993 | -109.71847 | 354 ft | 12 kts | 353° |
| 2026-05-06 21:47 | 23.15082 | -109.71855 | 355 ft | 14 kts | 354° |
| 2026-05-06 21:47 | 23.15181 | -109.71866 | 358 ft | 15 kts | 354° |
| 2026-05-06 21:48 | 23.15291 | -109.71878 | 360 ft | 17 kts | 354° |
| 2026-05-06 21:48 | 23.15411 | -109.71892 | 366 ft | 18 kts | 354° |
| 2026-05-06 21:48 | 23.15540 | -109.71908 | 365 ft | 19 kts | 354° |
| 2026-05-06 21:48 | 23.15679 | -109.71923 | 366 ft | 21 kts | 354° |
| 2026-05-06 21:49 | 23.15810 | -109.71937 | 369 ft | 16 kts | 355° |
| 2026-05-06 21:49 | 23.15880 | -109.71873 | 369 ft | 11 kts | 43° |
| 2026-05-06 21:49 | 23.15905 | -109.71807 | 365 ft | 4 kts | 84° |
| 2026-05-06 21:49 | 23.15905 | -109.71803 | 365 ft | 0 kts | 84° |